GAOIS EGSU-EGSU

Flight info

Callsign GAOIS
Flight time 0h 27m
Altitude 2000
Route VFR
Aircraft DH82/L-V/N

Departure

Time 2026-05-04 08:28
Airport Duxford Aerodrome (EGSU)

Arrival

Time 2026-05-04 08:55
Airport Duxford Aerodrome (EGSU)
Time Latitude Longitude Altitude Speed Heading
2026-05-04 08:08 52.09596 0.13374 117 ft 0 kts 135°
2026-05-04 08:20 52.09594 0.13377 117 ft 0 kts 136°
2026-05-04 08:20 52.09593 0.13379 117 ft 2 kts 137°
2026-05-04 08:21 52.09568 0.13402 117 ft 6 kts 153°
2026-05-04 08:21 52.09534 0.13429 117 ft 0 kts 160°
2026-05-04 08:21 52.09512 0.13435 117 ft 6 kts 180°
2026-05-04 08:21 52.09494 0.13350 117 ft 10 kts 255°
2026-05-04 08:22 52.09461 0.13279 117 ft 7 kts 168°
2026-05-04 08:22 52.09426 0.13306 117 ft 1 kts 147°
2026-05-04 08:24 52.09114 0.12526 117 ft 9 kts 221°
2026-05-04 08:24 52.09062 0.12509 117 ft 4 kts 184°
2026-05-04 08:24 52.09060 0.12509 117 ft 0 kts 184°
2026-05-04 08:25 52.09049 0.12505 117 ft 2 kts 199°
2026-05-04 08:26 52.09024 0.12468 117 ft 9 kts 225°
2026-05-04 08:27 52.09518 0.14272 652 ft 52 kts 62°
2026-05-04 08:28 52.09289 0.14709 788 ft 64 kts 150°
2026-05-04 08:28 52.08882 0.15029 954 ft 66 kts 146°
2026-05-04 08:28 52.08469 0.15360 1141 ft 66 kts 149°
2026-05-04 08:28 52.08019 0.15580 1259 ft 70 kts 160°
2026-05-04 08:29 52.07549 0.15759 1387 ft 68 kts 165°
2026-05-04 08:29 52.07080 0.15855 1502 ft 69 kts 175°
2026-05-04 08:29 52.06583 0.15969 1537 ft 76 kts 146°
2026-05-04 08:31 52.03431 0.18917 1417 ft 85 kts 171°
2026-05-04 08:33 51.99589 0.19086 1639 ft 84 kts 177°
2026-05-04 08:33 51.99001 0.19096 1652 ft 86 kts 171°
2026-05-04 08:35 51.94712 0.19317 1123 ft 86 kts 160°
2026-05-04 08:35 51.94162 0.19603 1162 ft 78 kts 153°
2026-05-04 08:35 51.93694 0.19899 1236 ft 67 kts 153°
2026-05-04 08:35 51.93272 0.20208 1332 ft 65 kts 151°
2026-05-04 08:37 51.90459 0.22843 1277 ft 80 kts 177°
2026-05-04 08:37 51.90002 0.22384 1253 ft 81 kts 230°
2026-05-04 08:37 51.89608 0.21732 1252 ft 81 kts 226°
2026-05-04 08:38 51.89201 0.21102 1251 ft 85 kts 227°
2026-05-04 08:38 51.88806 0.20392 1264 ft 86 kts 232°
2026-05-04 08:38 51.88363 0.19760 1139 ft 88 kts 184°
2026-05-04 08:40 51.88096 0.22885 350 ft 54 kts 38°
2026-05-04 08:40 51.88317 0.23299 565 ft 44 kts 41°
2026-05-04 08:40 51.88532 0.23636 721 ft 44 kts 44°
2026-05-04 08:41 51.88733 0.24019 846 ft 49 kts 45°
2026-05-04 08:41 51.88996 0.24390 993 ft 53 kts 40°
2026-05-04 08:41 51.89319 0.24217 1119 ft 65 kts 325°
2026-05-04 08:41 51.89664 0.23741 1273 ft 66 kts 322°
2026-05-04 08:42 51.89810 0.23075 1360 ft 78 kts 242°
2026-05-04 08:42 51.89397 0.22343 1269 ft 94 kts 225°
2026-05-04 08:42 51.88975 0.21629 1279 ft 82 kts 240°
2026-05-04 08:42 51.88638 0.20862 1197 ft 85 kts 239°
2026-05-04 08:43 51.88320 0.20097 1161 ft 74 kts 239°
2026-05-04 08:43 51.87975 0.19812 1160 ft 57 kts 124°
2026-05-04 08:43 51.88121 0.19940 1111 ft 75 kts 280°
2026-05-04 08:43 51.87932 0.20040 964 ft 69 kts
2026-05-04 08:44 51.87754 0.19822 899 ft 82 kts 129°
2026-05-04 08:44 51.87367 0.20555 732 ft 81 kts 121°
2026-05-04 08:46 51.88769 0.23858 413 ft 75 kts 39°
2026-05-04 08:46 51.89095 0.23799 644 ft 58 kts 321°
2026-05-04 08:46 51.89376 0.23332 799 ft 63 kts 315°
2026-05-04 08:46 51.89630 0.22746 963 ft 66 kts 304°
2026-05-04 08:47 51.89798 0.22084 1152 ft 60 kts 301°
2026-05-04 08:47 51.89996 0.21439 1303 ft 65 kts 304°
2026-05-04 08:47 51.90236 0.20826 1499 ft 66 kts 311°
2026-05-04 08:47 51.90500 0.20233 1732 ft 55 kts 313°
2026-05-04 08:48 51.90760 0.19655 1795 ft 66 kts 313°
2026-05-04 08:48 51.91015 0.19100 1970 ft 60 kts 314°
2026-05-04 08:48 51.91254 0.18486 1968 ft 67 kts 305°
2026-05-04 08:48 51.91498 0.17842 2039 ft 61 kts 312°
2026-05-04 08:49 51.91849 0.17712 2088 ft 55 kts 358°
2026-05-04 08:50 51.94104 0.17489 2478 ft 63 kts 15°
2026-05-04 08:50 51.94468 0.17799 2614 ft 59 kts 31°
2026-05-04 08:51 51.94844 0.18115 2711 ft 59 kts 27°
2026-05-04 08:51 51.95211 0.18403 2751 ft 67 kts 23°
2026-05-04 08:51 51.95686 0.18685 2739 ft 71 kts 19°
2026-05-04 08:51 51.96166 0.18947 2729 ft 75 kts 19°
2026-05-04 08:52 51.96673 0.19307 2662 ft 79 kts 32°
2026-05-04 08:52 51.97157 0.19740 2599 ft 81 kts 24°
2026-05-04 08:52 51.97702 0.20133 2407 ft 92 kts 22°
2026-05-04 08:52 51.98264 0.20499 2271 ft 84 kts 34°
2026-05-04 08:53 51.98725 0.21155 1588 ft 90 kts 39°
2026-05-04 08:54 52.00114 0.22307 441 ft 56 kts 26°
2026-05-04 08:55 52.00472 0.22387 303 ft 43 kts
2026-05-04 08:55 52.00700 0.22397 287 ft 27 kts 12°
2026-05-04 08:55 52.01009 0.22521 348 ft 51 kts 43°
2026-05-04 08:55 52.00825 0.22912 510 ft 65 kts 197°